Latest Coastal Weather Observations for Dennes Point

IDT60701

Issued at 5:03 am EST Tuesday 25 July 2017 (issued every 10 minutes, with the page automatically refreshed every 10 minutes)

About coastal observations | Map of coastal stations | Coastal observations for TAS | Marine services | Other Formats
Station Details ID: 094255 Name: DENNES POINT Lat: -43.06 Lon: 147.36 Height: 5.67 m
Data from the previous 72 hours. | See also: Recent months at Dennes Point
Date/Time
EST
Temp
°C
Wind Pressure Rain since
9am
mm
Weather Cloud Vis
km
Sea
Height
m
Swell
Dir  Spd
kts
Gust
kts
hPa Trend Height
m
Period
s
Dir
25/05:00am 8.7 NNW 6 8 1008.6 - 0.0 - - - - - - -
25/04:30am 8.5 NNW 6 7 1009.1 - 0.0 - - - - - - -
25/04:00am 8.4 NNW 5 6 1009.1 - 0.0 - - - - - - -
25/03:30am 8.4 N 3 4 1009.6 - 0.0 - - - - - - -
25/03:00am 8.2 N 5 5 1009.9 - 0.0 - - - - - - -
25/02:30am 8.0 N 4 5 1010.2 - 0.0 - - - - - - -
25/02:00am 7.8 N 3 4 1010.1 - 0.0 - - - - - - -
25/01:30am 8.0 N 4 5 1010.2 - 0.0 - - - - - - -
25/01:00am 8.2 N 5 7 1010.5 - 0.0 - - - - - - -
25/12:30am 8.6 N 4 7 1010.6 - 0.0 - - - - - - -
25/12:00am 8.7 NW 3 4 1010.7 - 0.0 - - - - - - -
 
Date/Time
EST
Temp
°C
Wind Pressure Rain since
9am
mm
Weather Cloud Vis
km
Sea
Height
m
Swell
Dir  Spd
kts
Gust
kts
hPa Trend Height
m
Period
s
Dir
24/11:30pm 7.8 NNW 1 3 1010.6 - 0.0 - - - - - - -
24/11:00pm 8.2 WNW 2 3 1010.7 - 0.0 - - - - - - -
24/10:30pm 8.7 WNW 6 10 1011.0 - 0.0 - - - - - - -
24/10:00pm 8.7 NNW 2 3 1011.0 - 0.0 - - - - - - -
24/09:30pm 8.9 NW 5 8 1010.9 - 0.0 - - - - - - -
24/09:00pm 8.7 NNW 4 7 1011.0 - 0.0 - - - - - - -
24/08:30pm 8.1 NW 3 5 1011.1 - 0.0 - - - - - - -
24/08:00pm 8.1 WNW 8 10 1010.9 - 0.0 - - - - - - -
24/07:30pm 8.6 WNW 6 10 1011.2 - 0.0 - - - - - - -
24/07:00pm 8.3 WNW 10 14 1011.1 - 0.0 - - - - - - -
24/06:30pm 8.4 WNW 6 8 1011.1 - 0.0 - - - - - - -
24/06:00pm 8.3 W 7 11 1010.9 - 0.0 - - - - - - -
24/05:30pm 8.5 W 9 11 1010.8 - 0.0 - - - - - - -
24/05:00pm 9.0 WNW 8 14 1010.7 - 0.0 - - - - - - -
24/04:30pm 9.6 W 13 19 1010.4 - 0.0 - - - - - - -
24/04:00pm 10.0 W 16 22 1010.0 - 0.0 - - - - - - -
24/03:30pm 10.9 W 14 21 1010.0 - 0.0 - - - - - - -
24/03:00pm 10.8 W 18 24 1009.8 - 0.0 - - - - - - -
24/02:30pm 11.2 W 16 23 1009.8 - 0.0 - - - - - - -
24/02:00pm 11.2 W 19 26 1009.8 - 0.0 - - - - - - -
24/01:49pm 11.2 W 17 28 1009.9 - 0.0 - - - - - - -
24/01:30pm 11.0 W 18 23 1010.0 - 0.0 - - - - - - -
24/01:08pm 10.9 W 19 31 1010.0 - 0.0 - - - - - - -
24/01:00pm 11.2 W 19 27 1010.1 - 0.0 - - - - - - -
24/12:30pm 11.0 W 17 25 1010.1 - 0.0 - - - - - - -
24/12:10pm 10.8 W 18 29 1010.2 - 0.0 - - - - - - -
24/12:00pm 10.7 W 19 27 1010.4 - 0.0 - - - - - - -
24/11:30am 10.4 WSW 22 29 1010.2 - 0.0 - - - - - - -
24/11:00am 10.6 W 21 28 1010.1 - 0.0 - - - - - - -
24/10:30am 10.1 W 21 33 1010.4 - 0.0 - - - - - - -
24/10:22am 10.0 W 20 33 1010.4 - 0.0 - - - - - - -
24/10:00am 9.8 W 20 26 1010.3 - 0.0 - - - - - - -
24/09:30am 9.4 W 17 24 1010.2 - 0.0 - - - - - - -
24/09:13am 8.9 W 18 28 1009.9 - 0.0 - - - - - - -
24/09:00am 8.7 W 18 25 1010.1 - 2.8 - - - - - - -
24/08:33am 8.4 W 16 26 1010.0 - 2.8 - - - - - - -
24/08:30am 8.4 WNW 16 23 1010.1 - 2.8 - - - - - - -
24/08:10am 8.4 WNW 16 27 1010.1 - 2.8 - - - - - - -
24/08:00am 8.4 W 15 23 1010.1 - 2.8 - - - - - - -
24/07:30am 7.7 WNW 10 15 1009.7 - 2.8 - - - - - - -
24/07:00am 7.9 WNW 9 14 1009.6 - 2.8 - - - - - - -
24/06:30am 7.7 WNW 10 15 1009.2 - 2.8 - - - - - - -
24/06:00am 7.5 W 13 17 1008.9 - 2.8 - - - - - - -
24/05:30am 7.3 W 13 17 1008.7 - 2.8 - - - - - - -
24/05:00am 6.8 WNW 10 15 1008.4 - 2.8 - - - - - - -
24/04:30am 7.0 W 14 20 1008.3 - 2.8 - - - - - - -
24/04:24am 7.1 W 15 20 1008.4 - 2.8 - - - - - - -
24/04:00am 6.2 W 7 9 1008.3 - 2.8 - - - - - - -
24/03:30am 6.7 W 11 13 1008.3 - 2.8 - - - - - - -
24/03:00am 6.8 WNW 9 14 1008.5 - 2.8 - - - - - - -
24/02:30am 6.5 W 8 13 1008.5 - 2.8 - - - - - - -
24/02:00am 6.8 WNW 9 12 1008.5 - 2.8 - - - - - - -
24/01:30am 6.9 NNW 3 5 1008.4 - 2.8 - - - - - - -
24/01:00am 6.6 NW 4 9 1008.4 - 2.8 - - - - - - -
24/12:30am 6.5 NW 6 8 1008.6 - 2.8 - - - - - - -
24/12:00am 6.2 WNW 5 7 1008.6 - 2.8 - - - - - - -
 
Date/Time
EST
Temp
°C
Wind Pressure Rain since
9am
mm
Weather Cloud Vis
km
Sea
Height
m
Swell
Dir  Spd
kts
Gust
kts
hPa Trend Height
m
Period
s
Dir
23/11:30pm 6.1 WNW 6 9 1008.6 - 2.8 - - - - - - -
23/11:00pm 6.5 NW 6 11 1008.6 - 2.8 - - - - - - -
23/10:30pm 5.7 W 5 8 1008.8 - 2.8 - - - - - - -
23/10:00pm 6.0 WNW 6 10 1008.7 - 2.8 - - - - - - -
23/09:30pm 6.4 NW 7 10 1008.5 - 2.8 - - - - - - -
23/09:00pm 6.2 W 7 10 1008.1 - 2.8 - - - - - - -
23/08:30pm 6.1 W 9 11 1007.8 - 2.8 - - - - - - -
23/08:00pm 6.5 WSW 10 15 1007.2 - 2.8 - - - - - - -
23/07:30pm 6.9 WSW 11 13 1006.7 - 2.8 - - - - - - -
23/07:00pm 6.7 WSW 11 17 1006.3 - 2.8 - - - - - - -
23/06:30pm 7.0 WSW 17 22 1005.5 - 2.8 - - - - - - -
23/06:00pm 6.4 SW 8 15 1005.3 - 2.8 - - - - - - -
23/05:30pm 6.4 SSW 7 13 1005.0 - 2.8 - - - - - - -
23/05:00pm 6.8 SW 12 18 1004.3 - 2.8 - - - - - - -
23/04:30pm 7.2 SSW 11 17 1004.0 - 2.8 - - - - - - -
23/04:00pm 7.2 SSW 12 21 1003.2 - 2.8 - - - - - - -
23/03:30pm 7.7 SSW 12 19 1002.6 - 2.8 - - - - - - -
23/03:00pm 7.5 SSW 11 21 1001.9 - 2.8 Recent precip. - - - - - -
23/02:30pm 8.0 SSW 12 17 1001.4 - 2.4 - - - - - - -
23/02:00pm 8.3 SSW 10 15 1000.9 - 2.0 - - - - - - -
23/01:30pm 8.7 SSW 8 11 1000.7 - 0.6 - - - - - - -
23/01:00pm 9.8 SSW 11 17 1000.3 - 0.2 - - - - - - -
23/12:30pm 11.7 W 17 21 999.6 - 0.2 - - - - - - -
23/12:00pm 11.8 W 15 18 999.4 - 0.2 - - - - - - -
23/11:30am 11.5 W 13 17 999.4 - 0.2 - - - - - - -
23/11:00am 10.3 NW 8 10 999.5 - 0.2 - - - - - - -
23/10:30am 9.7 NNW 10 13 999.6 - 0.2 - - - - - - -
23/10:00am 9.6 NNW 6 10 999.2 - 0.2 - - - - - - -
23/09:30am 8.6 WNW 5 6 998.8 - 0.2 - - - - - - -
23/09:00am 8.6 W 17 25 999.2 - 3.2 Rain - - - - - -
23/08:30am 9.3 W 10 19 999.5 - 1.2 - - - - - - -
23/08:00am 10.3 NNW 7 10 998.7 - 0.6 - - - - - - -
23/07:30am 10.4 SSW 6 15 998.1 - 0.6 - - - - - - -
23/07:00am 10.5 W 4 9 997.6 - 0.6 - - - - - - -
23/06:30am 10.8 NNW 11 19 996.7 - 0.6 - - - - - - -
23/06:00am 10.3 NNW 6 13 996.9 - 0.6 - - - - - - -
23/05:30am 10.0 W 4 7 997.8 - 0.6 - - - - - - -
23/05:00am 10.8 NW 2 6 997.7 - 0.6 - - - - - - -
23/04:30am 9.7 SW 2 4 997.8 - 0.6 - - - - - - -
23/04:00am 10.4 S 1 3 997.6 - 0.6 - - - - - - -
23/03:30am 11.3 N 5 10 997.5 - 0.6 - - - - - - -
23/03:00am 11.4 N 8 16 997.8 - 0.6 - - - - - - -
23/02:30am 11.5 NNW 9 18 997.7 - 0.6 - - - - - - -
23/02:00am 12.0 NNW 11 16 998.0 - 0.6 - - - - - - -
23/01:30am 11.2 NNW 12 19 998.2 - 0.6 - - - - - - -
23/01:07am 11.4 WNW 14 24 999.3 - 0.4 - - - - - - -
23/01:00am 11.4 WNW 20 30 999.8 - 0.4 - - - - - - -
23/12:48am 12.5 WNW 13 27 1000.1 - 0.2 - - - - - - -
23/12:30am 12.5 NNW 8 12 998.6 - 0.0 - - - - - - -
23/12:00am 12.4 N 8 13 998.6 - 0.0 - - - - - - -
 
Date/Time
EST
Temp
°C
Wind Pressure Rain since
9am
mm
Weather Cloud Vis
km
Sea
Height
m
Swell
Dir  Spd
kts
Gust
kts
hPa Trend Height
m
Period
s
Dir
22/11:30pm 12.4 N 12 17 999.1 - 0.0 - - - - - - -
22/11:00pm 11.9 N 14 19 999.5 - 0.0 - - - - - - -
22/10:30pm 11.9 N 14 19 1000.2 - 0.0 - - - - - - -
22/10:00pm 12.4 N 15 20 1000.9 - 0.0 - - - - - - -
22/09:30pm 11.8 N 12 16 1001.3 - 0.0 - - - - - - -
22/09:00pm 11.5 NNE 10 13 1001.8 - 0.0 - - - - - - -
22/08:30pm 11.8 N 13 16 1002.2 - 0.0 - - - - - - -
22/08:00pm 11.7 N 12 16 1002.8 - 0.0 - - - - - - -
22/07:30pm 11.6 N 11 14 1003.3 - 0.0 - - - - - - -
22/07:00pm 11.6 N 7 11 1003.6 - 0.0 - - - - - - -
22/06:30pm 11.8 NNW 5 8 1004.1 - 0.0 - - - - - - -
22/06:00pm 12.0 NNW 8 11 1004.1 - 0.0 - - - - - - -
22/05:30pm 12.5 NW 6 9 1004.2 - 0.0 - - - - - - -
22/05:00pm 12.2 NNW 9 11 1004.3 - 0.0 - - - - - - -
22/04:30pm 12.8 NW 9 12 1004.5 - 0.0 - - - - - - -
22/04:00pm 13.7 NW 9 13 1004.7 - 0.0 - - - - - - -
22/03:30pm 13.5 NW 10 15 1004.6 - 0.0 - - - - - - -
22/03:00pm 13.7 NW 13 17 1005.1 - 0.0 - - - - - - -
22/02:30pm 13.5 WNW 10 14 1005.2 - 0.0 - - - - - - -
22/02:00pm 12.8 NNW 9 11 1005.7 - 0.0 - - - - - - -
22/01:30pm 12.8 NNW 10 13 1006.1 - 0.0 - - - - - - -
22/01:00pm 12.1 NNW 10 13 1007.0 - 0.0 - - - - - - -
22/12:30pm 11.3 NNE 7 10 1007.7 - 0.0 - - - - - - -
22/12:00pm 10.5 NNE 10 12 1008.6 - 0.0 - - - - - - -
22/11:30am 10.0 NNE 11 13 1009.4 - 0.0 - - - - - - -
22/11:00am 9.5 NNE 11 14 1009.8 - 0.0 - - - - - - -
22/10:30am 9.1 NNE 12 15 1010.4 - 0.0 - - - - - - -
22/10:00am 8.8 NNE 14 18 1010.5 - 0.0 - - - - - - -
22/09:30am 9.3 NNE 7 9 1011.0 - 0.0 - - - - - - -
22/09:00am 9.3 N 5 7 1011.3 - 0.0 - - - - - - -
22/08:30am 8.3 N 6 8 1011.3 - 0.0 - - - - - - -
22/08:00am 8.5 NNW 8 9 1011.5 - 0.0 - - - - - - -
22/07:30am 7.7 NNE 4 5 1011.8 - 0.0 - - - - - - -
22/07:00am 7.6 N 6 7 1012.2 - 0.0 - - - - - - -
22/06:30am 7.5 N 4 5 1012.4 - 0.0 - - - - - - -
22/06:00am 7.8 NE 6 8 1012.5 - 0.0 - - - - - - -
22/05:30am 7.4 NNE 3 7 1012.8 - 0.0 - - - - - - -

Other Formats:

Comma delimited format used in spreadsheet applications
http://www.bom.gov.au/fwo/IDT60701/IDT60701.94988.axf

JavaScript Object Notation format (JSON) in row-major order
http://www.bom.gov.au/fwo/IDT60701/IDT60701.94988.json